sensor_id;sensor_type;location;lat;lon;timestamp;pressure;altitude;pressure_sealevel;temperature;humidity
19789;BME280;10054;59.332;18.244;2022-11-28T00:01:41;102170.20;;;2.51;100.00
19789;BME280;10054;59.332;18.244;2022-11-28T00:04:11;102168.91;;;2.48;100.00
19789;BME280;10054;59.332;18.244;2022-11-28T00:06:45;102171.08;;;2.48;100.00
19789;BME280;10054;59.332;18.244;2022-11-28T00:09:17;102165.87;;;2.47;100.00
19789;BME280;10054;59.332;18.244;2022-11-28T00:11:48;102169.78;;;2.47;100.00
19789;BME280;10054;59.332;18.244;2022-11-28T00:14:17;102165.01;;;2.46;100.00
19789;BME280;10054;59.332;18.244;2022-11-28T00:16:46;102168.48;;;2.47;100.00
19789;BME280;10054;59.332;18.244;2022-11-28T00:19:16;102171.52;;;2.46;100.00
19789;BME280;10054;59.332;18.244;2022-11-28T00:21:44;102171.09;;;2.44;100.00
19789;BME280;10054;59.332;18.244;2022-11-28T00:24:13;102172.83;;;2.45;100.00
19789;BME280;10054;59.332;18.244;2022-11-28T00:26:42;102169.36;;;2.44;100.00
19789;BME280;10054;59.332;18.244;2022-11-28T00:29:11;102174.56;;;2.44;100.00
19789;BME280;10054;59.332;18.244;2022-11-28T00:31:41;102170.66;;;2.44;100.00
19789;BME280;10054;59.332;18.244;2022-11-28T00:34:11;102169.35;;;2.46;100.00
19789;BME280;10054;59.332;18.244;2022-11-28T00:36:42;102173.69;;;2.47;100.00
19789;BME280;10054;59.332;18.244;2022-11-28T00:39:11;102176.28;;;2.48;100.00
19789;BME280;10054;59.332;18.244;2022-11-28T00:41:40;102164.12;;;2.49;100.00
19789;BME280;10054;59.332;18.244;2022-11-28T00:44:09;102167.17;;;2.48;100.00
19789;BME280;10054;59.332;18.244;2022-11-28T00:46:38;102168.04;;;2.47;100.00
19789;BME280;10054;59.332;18.244;2022-11-28T00:49:07;102165.45;;;2.44;100.00
19789;BME280;10054;59.332;18.244;2022-11-28T00:51:36;102164.16;;;2.43;100.00
19789;BME280;10054;59.332;18.244;2022-11-28T00:54:06;102164.17;;;2.40;100.00
19789;BME280;10054;59.332;18.244;2022-11-28T00:56:37;102160.27;;;2.40;100.00
19789;BME280;10054;59.332;18.244;2022-11-28T00:59:07;102158.08;;;2.42;100.00
19789;BME280;10054;59.332;18.244;2022-11-28T01:01:38;102161.89;;;2.63;100.00
19789;BME280;10054;59.332;18.244;2022-11-28T01:04:10;102154.91;;;2.69;100.00
19789;BME280;10054;59.332;18.244;2022-11-28T01:06:41;102158.41;;;2.64;100.00
19789;BME280;10054;59.332;18.244;2022-11-28T01:09:19;102159.74;;;2.58;100.00
19789;BME280;10054;59.332;18.244;2022-11-28T01:11:50;102153.70;;;2.50;100.00
19789;BME280;10054;59.332;18.244;2022-11-28T01:14:21;102157.20;;;2.45;100.00
19789;BME280;10054;59.332;18.244;2022-11-28T01:16:50;102149.40;;;2.42;100.00
19789;BME280;10054;59.332;18.244;2022-11-28T01:19:19;102156.79;;;2.39;100.00
19789;BME280;10054;59.332;18.244;2022-11-28T01:21:47;102146.83;;;2.36;100.00
19789;BME280;10054;59.332;18.244;2022-11-28T01:24:17;102155.08;;;2.32;100.00
19789;BME280;10054;59.332;18.244;2022-11-28T01:26:46;102151.19;;;2.29;100.00
19789;BME280;10054;59.332;18.244;2022-11-28T01:29:15;102147.30;;;2.26;100.00
19789;BME280;10054;59.332;18.244;2022-11-28T01:31:44;102142.97;;;2.23;100.00
19789;BME280;10054;59.332;18.244;2022-11-28T01:34:12;102139.09;;;2.22;100.00
19789;BME280;10054;59.332;18.244;2022-11-28T01:36:41;102136.06;;;2.19;100.00
19789;BME280;10054;59.332;18.244;2022-11-28T01:39:10;102136.50;;;2.20;100.00
19789;BME280;10054;59.332;18.244;2022-11-28T01:41:41;102130.42;;;2.21;100.00
19789;BME280;10054;59.332;18.244;2022-11-28T01:46:45;102126.91;;;2.24;100.00
19789;BME280;10054;59.332;18.244;2022-11-28T01:49:27;102124.30;;;2.24;100.00
19789;BME280;10054;59.332;18.244;2022-11-28T01:51:55;102133.84;;;2.25;100.00
19789;BME280;10054;59.332;18.244;2022-11-28T01:54:24;102129.08;;;2.24;100.00
19789;BME280;10054;59.332;18.244;2022-11-28T01:57:04;102121.70;;;2.24;100.00
19789;BME280;10054;59.332;18.244;2022-11-28T01:59:31;102121.73;;;2.22;100.00
19789;BME280;10054;59.332;18.244;2022-11-28T02:02:00;102123.48;;;2.22;100.00
19789;BME280;10054;59.332;18.244;2022-11-28T02:04:30;102120.44;;;2.21;100.00
19789;BME280;10054;59.332;18.244;2022-11-28T02:06:59;102123.44;;;2.23;100.00
19789;BME280;10054;59.332;18.244;2022-11-28T02:09:28;102126.90;;;2.25;100.00
19789;BME280;10054;59.332;18.244;2022-11-28T02:12:10;102124.30;;;2.27;100.00
19789;BME280;10054;59.332;18.244;2022-11-28T02:23:47;102115.58;;;2.34;100.00
19789;BME280;10054;59.332;18.244;2022-11-28T02:34:49;102117.80;;;2.24;100.00
19789;BME280;10054;59.332;18.244;2022-11-28T02:37:51;102123.04;;;2.22;100.00
19789;BME280;10054;59.332;18.244;2022-11-28T02:40:05;102122.61;;;2.20;100.00
19789;BME280;10054;59.332;18.244;2022-11-28T02:42:41;102117.41;;;2.21;100.00
19789;BME280;10054;59.332;18.244;2022-11-28T02:45:18;102124.70;;;2.34;100.00
19789;BME280;10054;59.332;18.244;2022-11-28T02:47:49;102126.41;;;2.38;100.00
19789;BME280;10054;59.332;18.244;2022-11-28T02:50:31;102123.84;;;2.29;100.00
19789;BME280;10054;59.332;18.244;2022-11-28T02:53:16;102124.73;;;2.23;100.00
19789;BME280;10054;59.332;18.244;2022-11-28T02:55:41;102129.12;;;2.21;100.00
19789;BME280;10054;59.332;18.244;2022-11-28T02:58:11;102124.34;;;2.21;100.00
19789;BME280;10054;59.332;18.244;2022-11-28T03:00:41;102124.78;;;2.22;100.00
19789;BME280;10054;59.332;18.244;2022-11-28T03:03:21;102125.17;;;2.24;100.00
19789;BME280;10054;59.332;18.244;2022-11-28T03:05:49;102120.83;;;2.25;100.00
19789;BME280;10054;59.332;18.244;2022-11-28T03:11:09;102120.38;;;2.27;100.00
19789;BME280;10054;59.332;18.244;2022-11-28T03:16:38;102128.19;;;2.28;100.00
19789;BME280;10054;59.332;18.244;2022-11-28T03:19:09;102128.18;;;2.30;100.00
19789;BME280;10054;59.332;18.244;2022-11-28T03:24:24;102130.77;;;2.33;100.00
19789;BME280;10054;59.332;18.244;2022-11-28T03:27:17;102138.59;;;2.31;100.00
19789;BME280;10054;59.332;18.244;2022-11-28T03:30:07;102134.27;;;2.27;100.00
19789;BME280;10054;59.332;18.244;2022-11-28T03:32:34;102138.17;;;2.27;100.00
19789;BME280;10054;59.332;18.244;2022-11-28T03:35:05;102138.17;;;2.27;100.00
19789;BME280;10054;59.332;18.244;2022-11-28T03:37:40;102145.98;;;2.29;100.00
19789;BME280;10054;59.332;18.244;2022-11-28T03:40:12;102147.28;;;2.29;100.00
19789;BME280;10054;59.332;18.244;2022-11-28T03:42:53;102142.50;;;2.30;100.00
19789;BME280;10054;59.332;18.244;2022-11-28T03:45:21;102143.79;;;2.35;100.00
19789;BME280;10054;59.332;18.244;2022-11-28T03:47:59;102145.07;;;2.39;100.00
19789;BME280;10054;59.332;18.244;2022-11-28T03:50:33;102145.06;;;2.42;100.00
19789;BME280;10054;59.332;18.244;2022-11-28T03:53:06;102146.34;;;2.45;100.00
19789;BME280;10054;59.332;18.244;2022-11-28T03:55:50;102153.28;;;2.48;100.00
19789;BME280;10054;59.332;18.244;2022-11-28T04:01:25;102144.12;;;2.55;100.00
19789;BME280;10054;59.332;18.244;2022-11-28T04:09:34;102154.08;;;2.62;100.00
19789;BME280;10054;59.332;18.244;2022-11-28T04:12:03;102149.30;;;2.61;100.00
19789;BME280;10054;59.332;18.244;2022-11-28T04:14:36;102150.60;;;2.63;100.00
19789;BME280;10054;59.332;18.244;2022-11-28T04:19:45;102140.17;;;2.64;100.00
19789;BME280;10054;59.332;18.244;2022-11-28T04:22:34;102156.67;;;2.65;100.00
19789;BME280;10054;59.332;18.244;2022-11-28T04:25:10;102151.44;;;2.68;100.00
19789;BME280;10054;59.332;18.244;2022-11-28T04:27:40;102147.43;;;2.86;100.00
19789;BME280;10054;59.332;18.244;2022-11-28T04:30:11;102152.20;;;2.87;100.00
19789;BME280;10054;59.332;18.244;2022-11-28T04:32:46;102153.55;;;2.81;100.00
19789;BME280;10054;59.332;18.244;2022-11-28T04:35:21;102157.91;;;2.76;100.00
19789;BME280;10054;59.332;18.244;2022-11-28T04:37:44;102162.70;;;2.73;100.00
19789;BME280;10054;59.332;18.244;2022-11-28T04:40:15;102159.25;;;2.71;100.00
19789;BME280;10054;59.332;18.244;2022-11-28T04:42:48;102159.70;;;2.68;100.00
19789;BME280;10054;59.332;18.244;2022-11-28T04:45:25;102159.27;;;2.67;100.00
19789;BME280;10054;59.332;18.244;2022-11-28T04:47:49;102147.11;;;2.66;100.00
19789;BME280;10054;59.332;18.244;2022-11-28T04:50:18;102147.98;;;2.66;100.00
19789;BME280;10054;59.332;18.244;2022-11-28T04:55:52;102151.45;;;2.67;100.00
19789;BME280;10054;59.332;18.244;2022-11-28T04:58:27;102154.48;;;2.68;100.00
19789;BME280;10054;59.332;18.244;2022-11-28T05:00:55;102141.45;;;2.68;100.00
19789;BME280;10054;59.332;18.244;2022-11-28T05:03:26;102150.58;;;2.68;100.00
19789;BME280;10054;59.332;18.244;2022-11-28T05:05:56;102148.84;;;2.68;100.00
19789;BME280;10054;59.332;18.244;2022-11-28T05:08:25;102151.01;;;2.69;100.00
19789;BME280;10054;59.332;18.244;2022-11-28T05:10:54;102157.95;;;2.70;100.00
19789;BME280;10054;59.332;18.244;2022-11-28T05:13:22;102160.98;;;2.71;100.00
19789;BME280;10054;59.332;18.244;2022-11-28T05:15:51;102157.08;;;2.71;100.00
19789;BME280;10054;59.332;18.244;2022-11-28T05:18:20;102164.89;;;2.71;100.00
19789;BME280;10054;59.332;18.244;2022-11-28T05:20:48;102156.64;;;2.71;100.00
19789;BME280;10054;59.332;18.244;2022-11-28T05:23:17;102163.59;;;2.71;100.00
19789;BME280;10054;59.332;18.244;2022-11-28T05:25:46;102165.32;;;2.72;100.00
19789;BME280;10054;59.332;18.244;2022-11-28T05:28:14;102168.79;;;2.72;100.00
19789;BME280;10054;59.332;18.244;2022-11-28T05:30:43;102161.81;;;2.79;100.00
19789;BME280;10054;59.332;18.244;2022-11-28T05:33:12;102160.06;;;2.81;100.00
19789;BME280;10054;59.332;18.244;2022-11-28T05:35:41;102163.97;;;2.81;100.00
19789;BME280;10054;59.332;18.244;2022-11-28T05:38:09;102164.86;;;2.77;100.00
19789;BME280;10054;59.332;18.244;2022-11-28T05:40:38;102162.69;;;2.76;100.00
19789;BME280;10054;59.332;18.244;2022-11-28T05:43:11;102165.29;;;2.78;100.00
19789;BME280;10054;59.332;18.244;2022-11-28T05:45:42;102166.59;;;2.78;100.00
19789;BME280;10054;59.332;18.244;2022-11-28T05:48:11;102166.59;;;2.78;100.00
19789;BME280;10054;59.332;18.244;2022-11-28T05:50:40;102163.99;;;2.76;100.00
19789;BME280;10054;59.332;18.244;2022-11-28T05:53:10;102165.72;;;2.77;100.00
19789;BME280;10054;59.332;18.244;2022-11-28T05:55:39;102170.06;;;2.78;100.00
19789;BME280;10054;59.332;18.244;2022-11-28T05:58:08;102170.07;;;2.77;100.00
19789;BME280;10054;59.332;18.244;2022-11-28T06:00:37;102166.17;;;2.75;100.00
19789;BME280;10054;59.332;18.244;2022-11-28T06:03:06;102173.13;;;2.75;100.00
19789;BME280;10054;59.332;18.244;2022-11-28T06:05:40;102173.56;;;2.74;100.00
19789;BME280;10054;59.332;18.244;2022-11-28T06:08:11;102177.48;;;2.71;100.00
19789;BME280;10054;59.332;18.244;2022-11-28T06:10:40;102173.58;;;2.70;100.00
19789;BME280;10054;59.332;18.244;2022-11-28T06:13:09;102171.41;;;2.69;100.00
19789;BME280;10054;59.332;18.244;2022-11-28T06:15:41;102171.41;;;2.69;100.00
19789;BME280;10054;59.332;18.244;2022-11-28T06:18:10;102171.41;;;2.69;100.00
19789;BME280;10054;59.332;18.244;2022-11-28T06:20:38;102174.89;;;2.70;100.00
19789;BME280;10054;59.332;18.244;2022-11-28T06:23:07;102170.11;;;2.69;100.00
19789;BME280;10054;59.332;18.244;2022-11-28T06:25:36;102173.14;;;2.70;100.00
19789;BME280;10054;59.332;18.244;2022-11-28T06:28:04;102172.27;;;2.71;100.00
19789;BME280;10054;59.332;18.244;2022-11-28T06:30:33;102170.10;;;2.71;100.00
19789;BME280;10054;59.332;18.244;2022-11-28T06:33:02;102180.53;;;2.71;100.00
19789;BME280;10054;59.332;18.244;2022-11-28T06:35:31;102180.96;;;2.70;100.00
19789;BME280;10054;59.332;18.244;2022-11-28T06:37:59;102180.09;;;2.71;100.00
19789;BME280;10054;59.332;18.244;2022-11-28T06:40:28;102178.78;;;2.71;100.00
19789;BME280;10054;59.332;18.244;2022-11-28T06:42:58;102181.83;;;2.71;100.00
19789;BME280;10054;59.332;18.244;2022-11-28T06:45:26;102178.36;;;2.70;100.00
19789;BME280;10054;59.332;18.244;2022-11-28T06:47:55;102179.66;;;2.70;100.00
19789;BME280;10054;59.332;18.244;2022-11-28T06:50:24;102182.70;;;2.70;100.00
19789;BME280;10054;59.332;18.244;2022-11-28T06:52:56;102178.80;;;2.70;100.00
19789;BME280;10054;59.332;18.244;2022-11-28T06:55:25;102187.05;;;2.71;100.00
19789;BME280;10054;59.332;18.244;2022-11-28T06:57:53;102191.39;;;2.69;100.00
19789;BME280;10054;59.332;18.244;2022-11-28T07:00:22;102194.00;;;2.69;100.00
19789;BME280;10054;59.332;18.244;2022-11-28T07:02:51;102189.66;;;2.68;100.00
19789;BME280;10054;59.332;18.244;2022-11-28T07:05:20;102190.97;;;2.68;100.00
19789;BME280;10054;59.332;18.244;2022-11-28T07:07:49;102187.48;;;2.70;100.00
19789;BME280;10054;59.332;18.244;2022-11-28T07:10:18;102194.38;;;2.80;100.00
19789;BME280;10054;59.332;18.244;2022-11-28T07:12:51;102189.59;;;2.80;100.00
19789;BME280;10054;59.332;18.244;2022-11-28T07:15:17;102190.48;;;2.77;100.00
19789;BME280;10054;59.332;18.244;2022-11-28T07:17:46;102193.53;;;2.75;100.00
19789;BME280;10054;59.332;18.244;2022-11-28T07:20:15;102189.20;;;2.74;100.00
19789;BME280;10054;59.332;18.244;2022-11-28T07:22:46;102186.15;;;2.75;100.00
19789;BME280;10054;59.332;18.244;2022-11-28T07:25:15;102192.23;;;2.74;100.00
19789;BME280;10054;59.332;18.244;2022-11-28T07:27:44;102185.73;;;2.72;100.00
19789;BME280;10054;59.332;18.244;2022-11-28T07:30:12;102189.20;;;2.73;100.00
19789;BME280;10054;59.332;18.244;2022-11-28T07:32:41;102189.63;;;2.74;100.00
19789;BME280;10054;59.332;18.244;2022-11-28T07:35:10;102186.59;;;2.74;100.00
19789;BME280;10054;59.332;18.244;2022-11-28T07:37:38;102188.77;;;2.73;100.00
19789;BME280;10054;59.332;18.244;2022-11-28T07:40:08;102190.94;;;2.74;100.00
19789;BME280;10054;59.332;18.244;2022-11-28T07:42:36;102191.36;;;2.76;100.00
19789;BME280;10054;59.332;18.244;2022-11-28T07:45:06;102195.69;;;2.79;100.00
19789;BME280;10054;59.332;18.244;2022-11-28T07:47:35;102191.33;;;2.81;100.00
19789;BME280;10054;59.332;18.244;2022-11-28T07:50:04;102194.37;;;2.82;100.00
19789;BME280;10054;59.332;18.244;2022-11-28T07:52:33;102189.59;;;2.81;100.00
19789;BME280;10054;59.332;18.244;2022-11-28T07:55:02;102191.30;;;2.85;100.00
19789;BME280;10054;59.332;18.244;2022-11-28T07:57:31;102194.78;;;2.86;100.00
19789;BME280;10054;59.332;18.244;2022-11-28T08:00:00;102201.72;;;2.87;100.00
19789;BME280;10054;59.332;18.244;2022-11-28T08:02:30;102199.55;;;2.88;100.00
19789;BME280;10054;59.332;18.244;2022-11-28T08:04:59;102202.14;;;2.91;100.00
19789;BME280;10054;59.332;18.244;2022-11-28T08:07:28;102202.56;;;2.92;100.00
19789;BME280;10054;59.332;18.244;2022-11-28T08:09:57;102203.00;;;2.91;100.00
19789;BME280;10054;59.332;18.244;2022-11-28T08:12:25;102202.56;;;2.92;100.00
19789;BME280;10054;59.332;18.244;2022-11-28T08:14:54;102204.30;;;2.93;100.00
19789;BME280;10054;59.332;18.244;2022-11-28T08:17:23;102204.30;;;2.93;100.00
19789;BME280;10054;59.332;18.244;2022-11-28T08:19:52;102202.99;;;2.93;100.00
19789;BME280;10054;59.332;18.244;2022-11-28T08:22:21;102208.19;;;2.96;100.00
19789;BME280;10054;59.332;18.244;2022-11-28T08:24:50;102206.41;;;2.98;100.00
19789;BME280;10054;59.332;18.244;2022-11-28T08:27:19;102207.31;;;2.97;100.00
19789;BME280;10054;59.332;18.244;2022-11-28T08:29:47;102207.75;;;2.96;100.00
19789;BME280;10054;59.332;18.244;2022-11-28T08:32:16;102213.83;;;2.97;100.00
19789;BME280;10054;59.332;18.244;2022-11-28T08:34:45;102214.66;;;2.97;100.00
19789;BME280;10054;59.332;18.244;2022-11-28T08:37:14;102209.02;;;2.98;100.00
19789;BME280;10054;59.332;18.244;2022-11-28T08:39:43;102211.61;;;3.00;100.00
19789;BME280;10054;59.332;18.244;2022-11-28T08:42:13;102211.17;;;3.00;100.00
19789;BME280;10054;59.332;18.244;2022-11-28T08:44:42;102206.83;;;3.01;100.00
19789;BME280;10054;59.332;18.244;2022-11-28T08:47:10;102208.12;;;3.01;100.00
19789;BME280;10054;59.332;18.244;2022-11-28T08:49:39;102209.86;;;3.02;100.00
19789;BME280;10054;59.332;18.244;2022-11-28T08:52:08;102215.50;;;3.03;100.00
19789;BME280;10054;59.332;18.244;2022-11-28T08:54:37;102217.25;;;3.02;100.00
19789;BME280;10054;59.332;18.244;2022-11-28T08:57:07;102216.37;;;3.03;100.00
19789;BME280;10054;59.332;18.244;2022-11-28T08:59:35;102223.76;;;3.04;100.00
19789;BME280;10054;59.332;18.244;2022-11-28T09:02:04;102226.36;;;3.04;100.00
19789;BME280;10054;59.332;18.244;2022-11-28T09:04:33;102227.66;;;3.05;100.00
19789;BME280;10054;59.332;18.244;2022-11-28T09:07:02;102229.39;;;3.06;100.00
19789;BME280;10054;59.332;18.244;2022-11-28T09:09:31;102226.34;;;3.07;100.00
19789;BME280;10054;59.332;18.244;2022-11-28T09:12:00;102230.25;;;3.07;100.00
19789;BME280;10054;59.332;18.244;2022-11-28T09:14:28;102229.39;;;3.06;100.00
19789;BME280;10054;59.332;18.244;2022-11-28T09:16:58;102232.88;;;3.05;100.00
19789;BME280;10054;59.332;18.244;2022-11-28T09:19:28;102231.13;;;3.06;100.00
19789;BME280;10054;59.332;18.244;2022-11-28T09:21:56;102233.73;;;3.07;100.00
19789;BME280;10054;59.332;18.244;2022-11-28T09:24:26;102233.30;;;3.06;100.00
19789;BME280;10054;59.332;18.244;2022-11-28T09:26:55;102233.29;;;3.08;100.00
19789;BME280;10054;59.332;18.244;2022-11-28T09:29:24;102234.14;;;3.11;100.00
19789;BME280;10054;59.332;18.244;2022-11-28T09:31:54;102227.56;;;3.22;100.00
19789;BME280;10054;59.332;18.244;2022-11-28T09:34:23;102230.17;;;3.20;100.00
19789;BME280;10054;59.332;18.244;2022-11-28T09:36:52;102230.19;;;3.19;100.00
19789;BME280;10054;59.332;18.244;2022-11-28T09:39:20;102228.46;;;3.16;100.00
19789;BME280;10054;59.332;18.244;2022-11-28T09:44:47;102238.47;;;3.14;100.00
19789;BME280;10054;59.332;18.244;2022-11-28T09:47:25;102239.34;;;3.14;100.00
19789;BME280;10054;59.332;18.244;2022-11-28T09:50:14;102241.51;;;3.15;100.00
19789;BME280;10054;59.332;18.244;2022-11-28T09:55:44;102226.73;;;3.14;100.00
19789;BME280;10054;59.332;18.244;2022-11-28T09:58:35;102237.61;;;3.13;100.00
19789;BME280;10054;59.332;18.244;2022-11-28T10:04:07;102237.16;;;3.15;100.00
19789;BME280;10054;59.332;18.244;2022-11-28T10:06:43;102238.02;;;3.16;100.00
19789;BME280;10054;59.332;18.244;2022-11-28T10:09:12;102240.20;;;3.16;100.00
19789;BME280;10054;59.332;18.244;2022-11-28T10:11:52;102235.86;;;3.15;100.00
19789;BME280;10054;59.332;18.244;2022-11-28T10:20:10;102230.60;;;3.21;100.00
19789;BME280;10054;59.332;18.244;2022-11-28T10:22:54;102234.07;;;3.23;100.00
19789;BME280;10054;59.332;18.244;2022-11-28T10:25:39;102236.25;;;3.22;100.00
19789;BME280;10054;59.332;18.244;2022-11-28T10:28:20;102231.89;;;3.24;100.00
19789;BME280;10054;59.332;18.244;2022-11-28T10:30:46;102235.79;;;3.26;100.00
19789;BME280;10054;59.332;18.244;2022-11-28T10:33:21;102235.78;;;3.27;100.00
19789;BME280;10054;59.332;18.244;2022-11-28T10:36:02;102234.03;;;3.28;100.00
19789;BME280;10054;59.332;18.244;2022-11-28T10:38:33;102237.52;;;3.28;100.00
19789;BME280;10054;59.332;18.244;2022-11-28T10:43:59;102236.64;;;3.29;100.00
19789;BME280;10054;59.332;18.244;2022-11-28T10:46:59;102234.03;;;3.29;100.00
19789;BME280;10054;59.332;18.244;2022-11-28T10:52:35;102230.11;;;3.29;100.00
19789;BME280;10054;59.332;18.244;2022-11-28T10:55:21;102236.21;;;3.28;100.00
19789;BME280;10054;59.332;18.244;2022-11-28T10:58:15;102238.81;;;3.28;100.00
19789;BME280;10054;59.332;18.244;2022-11-28T11:00:44;102236.22;;;3.27;100.00
19789;BME280;10054;59.332;18.244;2022-11-28T11:03:17;102236.23;;;3.25;100.00
19789;BME280;10054;59.332;18.244;2022-11-28T11:05:47;102231.89;;;3.24;100.00
19789;BME280;10054;59.332;18.244;2022-11-28T11:08:26;102235.81;;;3.23;100.00
19789;BME280;10054;59.332;18.244;2022-11-28T11:11:05;102233.64;;;3.22;100.00
19789;BME280;10054;59.332;18.244;2022-11-28T11:16:24;102242.33;;;3.23;100.00
19789;BME280;10054;59.332;18.244;2022-11-28T11:18:54;102233.64;;;3.22;100.00
19789;BME280;10054;59.332;18.244;2022-11-28T11:21:25;102232.77;;;3.23;100.00
19789;BME280;10054;59.332;18.244;2022-11-28T11:24:13;102232.75;;;3.25;100.00
19789;BME280;10054;59.332;18.244;2022-11-28T11:26:43;102243.19;;;3.25;100.00
19789;BME280;10054;59.332;18.244;2022-11-28T11:31:54;102238.41;;;3.24;100.00
19789;BME280;10054;59.332;18.244;2022-11-28T11:34:24;102227.54;;;3.25;100.00
19789;BME280;10054;59.332;18.244;2022-11-28T11:37:15;102232.31;;;3.27;100.00
19789;BME280;10054;59.332;18.244;2022-11-28T11:39:26;102227.94;;;3.30;100.00
19789;BME280;10054;59.332;18.244;2022-11-28T11:44:34;102230.06;;;3.37;100.00
19789;BME280;10054;59.332;18.244;2022-11-28T11:47:08;102229.64;;;3.35;100.00
19789;BME280;10054;59.332;18.244;2022-11-28T11:49:42;102230.09;;;3.33;100.00
19789;BME280;10054;59.332;18.244;2022-11-28T11:52:25;102230.09;;;3.33;100.00
19789;BME280;10054;59.332;18.244;2022-11-28T11:57:37;102230.11;;;3.29;100.00
19789;BME280;10054;59.332;18.244;2022-11-28T12:05:19;102230.13;;;3.28;100.00
19789;BME280;10054;59.332;18.244;2022-11-28T12:07:55;102225.36;;;3.26;100.00
19789;BME280;10054;59.332;18.244;2022-11-28T12:10:31;102224.50;;;3.24;100.00
19789;BME280;10054;59.332;18.244;2022-11-28T12:12:54;102227.98;;;3.24;100.00
19789;BME280;10054;59.332;18.244;2022-11-28T12:18:21;102227.99;;;3.21;100.00
19789;BME280;10054;59.332;18.244;2022-11-28T12:21:00;102227.14;;;3.19;100.00
19789;BME280;10054;59.332;18.244;2022-11-28T12:32:15;102224.46;;;3.30;100.00
19789;BME280;10054;59.332;18.244;2022-11-28T12:36:45;102234.88;;;3.32;100.00
19789;BME280;10054;59.332;18.244;2022-11-28T12:39:23;102241.41;;;3.32;100.00
19789;BME280;10054;59.332;18.244;2022-11-28T12:42:09;102234.02;;;3.31;100.00
19789;BME280;10054;59.332;18.244;2022-11-28T12:47:58;102238.78;;;3.35;100.00
19789;BME280;10054;59.332;18.244;2022-11-28T12:50:35;102235.73;;;3.34;100.00
19789;BME280;10054;59.332;18.244;2022-11-28T12:58:20;102240.54;;;3.31;100.00
19789;BME280;10054;59.332;18.244;2022-11-28T13:00:58;102237.52;;;3.28;100.00
19789;BME280;10054;59.332;18.244;2022-11-28T13:14:53;102235.80;;;3.24;100.00
19789;BME280;10054;59.332;18.244;2022-11-28T13:17:43;102240.17;;;3.21;100.00
19789;BME280;10054;59.332;18.244;2022-11-28T13:20:27;102238.01;;;3.19;100.00
19789;BME280;10054;59.332;18.244;2022-11-28T13:23:20;102242.36;;;3.18;100.00
19789;BME280;10054;59.332;18.244;2022-11-28T13:25:59;102243.23;;;3.17;100.00
19789;BME280;10054;59.332;18.244;2022-11-28T13:31:22;102237.61;;;3.13;100.00
19789;BME280;10054;59.332;18.244;2022-11-28T13:33:52;102240.66;;;3.13;100.00
19789;BME280;10054;59.332;18.244;2022-11-28T13:36:43;102241.53;;;3.10;100.00
19789;BME280;10054;59.332;18.244;2022-11-28T13:45:01;102247.65;;;3.05;100.00
19789;BME280;10054;59.332;18.244;2022-11-28T13:47:34;102246.80;;;3.03;100.00
19789;BME280;10054;59.332;18.244;2022-11-28T13:50:40;102239.84;;;3.02;100.00
19789;BME280;10054;59.332;18.244;2022-11-28T13:53:19;102245.06;;;3.02;100.00
19789;BME280;10054;59.332;18.244;2022-11-28T13:55:50;102249.41;;;3.01;100.00
19789;BME280;10054;59.332;18.244;2022-11-28T13:58:25;102250.71;;;3.01;100.00
19789;BME280;10054;59.332;18.244;2022-11-28T14:01:09;102246.80;;;3.01;100.00
19789;BME280;10054;59.332;18.244;2022-11-28T14:03:48;102252.44;;;3.02;100.00
19789;BME280;10054;59.332;18.244;2022-11-28T14:06:25;102245.50;;;3.00;100.00
19789;BME280;10054;59.332;18.244;2022-11-28T14:09:00;102253.77;;;2.99;100.00
19789;BME280;10054;59.332;18.244;2022-11-28T14:11:51;102248.55;;;2.97;100.00
19789;BME280;10054;59.332;18.244;2022-11-28T14:25:33;102256.44;;;2.90;100.00
19789;BME280;10054;59.332;18.244;2022-11-28T14:28:04;102250.36;;;2.89;100.00
19789;BME280;10054;59.332;18.244;2022-11-28T14:30:38;102257.31;;;2.89;100.00
19789;BME280;10054;59.332;18.244;2022-11-28T14:33:22;102262.54;;;2.87;100.00
19789;BME280;10054;59.332;18.244;2022-11-28T14:41:05;102263.41;;;2.86;100.00
19789;BME280;10054;59.332;18.244;2022-11-28T14:43:46;102262.12;;;2.85;100.00
19789;BME280;10054;59.332;18.244;2022-11-28T14:46:24;102269.50;;;2.84;100.00
19789;BME280;10054;59.332;18.244;2022-11-28T14:59:50;102271.28;;;2.74;100.00
19789;BME280;10054;59.332;18.244;2022-11-28T15:05:18;102264.77;;;2.73;100.00
19789;BME280;10054;59.332;18.244;2022-11-28T15:11:01;102265.64;;;2.72;100.00
19789;BME280;10054;59.332;18.244;2022-11-28T15:13:40;102259.56;;;2.71;100.00
19789;BME280;10054;59.332;18.244;2022-11-28T15:16:05;102258.70;;;2.69;100.00
19789;BME280;10054;59.332;18.244;2022-11-28T15:18:36;102270.00;;;2.68;100.00
19789;BME280;10054;59.332;18.244;2022-11-28T15:21:10;102262.19;;;2.67;100.00
19789;BME280;10054;59.332;18.244;2022-11-28T15:23:38;102268.27;;;2.67;100.00
19789;BME280;10054;59.332;18.244;2022-11-28T15:26:17;102262.62;;;2.66;100.00
19789;BME280;10054;59.332;18.244;2022-11-28T15:28:39;102266.09;;;2.67;100.00
19789;BME280;10054;59.332;18.244;2022-11-28T15:31:15;102266.97;;;2.66;100.00
19789;BME280;10054;59.332;18.244;2022-11-28T15:33:39;102263.94;;;2.63;100.00
19789;BME280;10054;59.332;18.244;2022-11-28T15:36:22;102268.71;;;2.63;100.00
19789;BME280;10054;59.332;18.244;2022-11-28T15:38:47;102268.28;;;2.62;100.00
19789;BME280;10054;59.332;18.244;2022-11-28T15:41:24;102273.92;;;2.62;100.00